No particular awareness of the weather is required.    There are no Weather-warnings

Οι άλλοι ιστότοποί μου:

SYKIA HOMEWEATHERSTATIONsikeaweather.alinos.eu

SYKIA METEOTEMPLATEsykiameteo.alinos.eu

alinos.eualinos.eu



Αναφορές γειτονικών METAR

   
LGEL - Elefsis (hel-Afb, Greece
Απόσταση από τον σταθμό: Α 77 km
Ενημερώθηκε: 24-08-2019 08:20
Αίθριος  
Αίθριος  
   Ανεμος: ΒΒΔ 29.6 km/h
Ανεμος: ΒΒΔ 29.6 km/h
Θερμοκρασία: 29°C
Δείκτης θερμότητας: 29°C
Σημείο Δρόσου: 16°C
Υγρασία: 45%
Βαρόμετρο: 1014 hPa
Ορατότητα: More than 10 km
Στοιχεία νεφών: Αίθριος
LGEL 240520Z 33016KT CAVOK 29/16 Q1014
LGRX - Araxos (civ/Afb), Greece
Απόσταση από τον σταθμό: Δ 110 km
Ενημερώθηκε: 24-08-2019 08:20
Αίθριος  
Αίθριος  
   Ανεμος: ΒΑ 9.3 km/h
Ανεμος: ΒΑ 9.3 km/h
Θερμοκρασία: 29°C
Δείκτης θερμότητας: 29°C
Σημείο Δρόσου: 16°C
Υγρασία: 45%
Βαρόμετρο: 1014 hPa
Ορατότητα: More than 10 km
Στοιχεία νεφών: Αίθριος
LGRX 240520Z 04005KT CAVOK 29/16 Q1014
LGAV - Athens/Elef-Ven, Greece
Απόσταση από τον σταθμό: Α 113 km
Ενημερώθηκε: 24-08-2019 08:20
Αίθριος  
Αίθριος  
   Ανεμος: Βόρια 24.1 km/h
Ανεμος: Βόρια 24.1 km/h
Θερμοκρασία: 28°C
Δείκτης θερμότητας: 28°C
Σημείο Δρόσου: 15°C
Υγρασία: 45%
Βαρόμετρο: 1015 hPa
Ορατότητα: More than 10 km
Στοιχεία νεφών: Αίθριος
LGAV 240520Z 01013KT CAVOK 28/15 Q1015 NOSIG
LGAD - Andravida (civ/A, Greece
Απόσταση από τον σταθμό: Δ 124 km
Ενημερώθηκε: 24-08-2019 08:20
Αίθριος  
Αίθριος  
   Ανεμος: μεταβλητός 5.6 km/h
Ανεμος: μεταβλητός 5.6 km/h
Θερμοκρασία: 24°C
Σημείο Δρόσου: 15°C
Υγρασία: 57%
Βαρόμετρο: 1014 hPa
Ορατότητα: More than 10 km
Στοιχεία νεφών: Αίθριος
LGAD 240520Z VRB03KT CAVOK 24/15 Q1014
LGKL - Kalamata (hel-Af, Greece
Απόσταση από τον σταθμό: ΝΝΔ 124 km
Ενημερώθηκε: 24-08-2019 08:20
Αίθριος  
Αίθριος  
   Ανεμος: Απνοια
Ανεμος: Απνοια
Θερμοκρασία: 32°C
Σημείο Δρόσου: 9°C
Υγρασία: 24%
Βαρόμετρο: 1012 hPa
Ορατότητα: More than 10 km
Στοιχεία νεφών: Αίθριος
LGKL 240520Z 00000KT CAVOK 32/09 Q1012
LGBL - Nea Anchialos, Greece
Απόσταση από τον σταθμό: Β 129 km
Ενημερώθηκε: 24-08-2019 08:20
Αίθριος  
Αίθριος  
   Ανεμος: Δυτικά 5.6 km/h
Ανεμος: Δυτικά 5.6 km/h
Θερμοκρασία: 26°C
Σημείο Δρόσου: 12°C
Υγρασία: 42%
Βαρόμετρο: 1018 hPa
Ορατότητα: More than 10 km
Στοιχεία νεφών: Αίθριος
LGBL 240520Z 27003KT CAVOK 26/12 Q1018

Αρχική γραφή από  Saratoga-weather.org Προσαρμογή στον ιστότοπο από  Weerstation Leuven

Βλέπε επίσης τις ενημερώσεις τού σταθμού μας στα παρακάτω δίκτυα:

European Weather Network

Weather Underground

AWEKAS

Citizen Weather Observer Program (CWOP)

HAMweather, WeatherForYou, PWS Weather

UK Metoffice

Equipment we use:

Μετεωρολογικός σταθμός
Davis Wireless Vantage Pro2

Davis Wireless Vantage Pro2